sensor_id;sensor_type;location;lat;lon;timestamp;temperature;humidity
57709;SHT35;42558;52.388;13.390;2023-03-14T00:00:18;12.02;76.47
57709;SHT35;42558;52.388;13.390;2023-03-14T00:02:54;11.88;76.93
57709;SHT35;42558;52.388;13.390;2023-03-14T00:05:24;11.81;77.25
57709;SHT35;42558;52.388;13.390;2023-03-14T00:07:54;11.83;77.19
57709;SHT35;42558;52.388;13.390;2023-03-14T00:10:24;11.85;77.20
57709;SHT35;42558;52.388;13.390;2023-03-14T00:12:54;11.85;77.24
57709;SHT35;42558;52.388;13.390;2023-03-14T00:15:24;11.80;77.60
57709;SHT35;42558;52.388;13.390;2023-03-14T00:17:53;11.70;78.21
57709;SHT35;42558;52.388;13.390;2023-03-14T00:20:23;11.72;78.52
57709;SHT35;42558;52.388;13.390;2023-03-14T00:22:53;11.75;78.54
57709;SHT35;42558;52.388;13.390;2023-03-14T00:25:23;11.68;78.82
57709;SHT35;42558;52.388;13.390;2023-03-14T00:27:53;11.68;78.98
57709;SHT35;42558;52.388;13.390;2023-03-14T00:30:23;11.54;79.45
57709;SHT35;42558;52.388;13.390;2023-03-14T00:32:52;11.48;79.96
57709;SHT35;42558;52.388;13.390;2023-03-14T00:35:22;11.46;80.07
57709;SHT35;42558;52.388;13.390;2023-03-14T00:37:52;11.49;80.11
57709;SHT35;42558;52.388;13.390;2023-03-14T00:40:22;11.47;80.13
57709;SHT35;42558;52.388;13.390;2023-03-14T00:42:51;11.42;80.28
57709;SHT35;42558;52.388;13.390;2023-03-14T00:45:18;11.37;80.56
57709;SHT35;42558;52.388;13.390;2023-03-14T00:47:46;11.34;80.74
57709;SHT35;42558;52.388;13.390;2023-03-14T00:50:15;11.38;80.62
57709;SHT35;42558;52.388;13.390;2023-03-14T00:52:43;11.33;80.62
57709;SHT35;42558;52.388;13.390;2023-03-14T00:55:12;11.29;80.85
57709;SHT35;42558;52.388;13.390;2023-03-14T00:57:40;11.27;80.95
57709;SHT35;42558;52.388;13.390;2023-03-14T01:00:09;11.27;80.94
57709;SHT35;42558;52.388;13.390;2023-03-14T01:02:40;11.22;81.12
57709;SHT35;42558;52.388;13.390;2023-03-14T01:05:10;11.19;81.09
57709;SHT35;42558;52.388;13.390;2023-03-14T01:07:40;11.21;81.09
57709;SHT35;42558;52.388;13.390;2023-03-14T01:10:10;11.20;81.08
57709;SHT35;42558;52.388;13.390;2023-03-14T01:12:40;11.12;81.19
57709;SHT35;42558;52.388;13.390;2023-03-14T01:15:09;11.15;81.28
57709;SHT35;42558;52.388;13.390;2023-03-14T01:17:39;11.21;80.94
57709;SHT35;42558;52.388;13.390;2023-03-14T01:20:11;11.28;80.73
57709;SHT35;42558;52.388;13.390;2023-03-14T01:22:42;11.31;80.57
57709;SHT35;42558;52.388;13.390;2023-03-14T01:25:13;11.28;80.70
57709;SHT35;42558;52.388;13.390;2023-03-14T01:27:45;11.29;80.71
57709;SHT35;42558;52.388;13.390;2023-03-14T01:30:14;11.29;80.69
57709;SHT35;42558;52.388;13.390;2023-03-14T01:32:44;11.26;80.88
57709;SHT35;42558;52.388;13.390;2023-03-14T01:35:14;11.29;80.76
57709;SHT35;42558;52.388;13.390;2023-03-14T01:37:44;11.26;80.91
57709;SHT35;42558;52.388;13.390;2023-03-14T01:40:14;11.28;80.91
57709;SHT35;42558;52.388;13.390;2023-03-14T01:43:12;11.31;80.78
57709;SHT35;42558;52.388;13.390;2023-03-14T01:48:37;11.21;81.11
57709;SHT35;42558;52.388;13.390;2023-03-14T01:51:20;11.19;81.22
57709;SHT35;42558;52.388;13.390;2023-03-14T01:54:01;11.21;81.09
57709;SHT35;42558;52.388;13.390;2023-03-14T01:56:37;11.24;80.88
57709;SHT35;42558;52.388;13.390;2023-03-14T01:59:12;11.20;81.06
57709;SHT35;42558;52.388;13.390;2023-03-14T02:01:43;11.14;81.13
57709;SHT35;42558;52.388;13.390;2023-03-14T02:04:17;11.12;81.28
57709;SHT35;42558;52.388;13.390;2023-03-14T02:09:48;11.05;81.30
57709;SHT35;42558;52.388;13.390;2023-03-14T02:12:18;11.04;81.42
57709;SHT35;42558;52.388;13.390;2023-03-14T02:14:50;11.00;81.44
57709;SHT35;42558;52.388;13.390;2023-03-14T02:17:20;11.06;81.21
57709;SHT35;42558;52.388;13.390;2023-03-14T02:19:59;11.02;81.17
57709;SHT35;42558;52.388;13.390;2023-03-14T02:22:46;10.95;81.41
57709;SHT35;42558;52.388;13.390;2023-03-14T02:25:21;10.97;81.45
57709;SHT35;42558;52.388;13.390;2023-03-14T02:28:03;10.98;81.21
57709;SHT35;42558;52.388;13.390;2023-03-14T02:30:33;10.99;81.28
57709;SHT35;42558;52.388;13.390;2023-03-14T02:33:14;11.01;81.17
57709;SHT35;42558;52.388;13.390;2023-03-14T02:35:59;11.09;81.00
57709;SHT35;42558;52.388;13.390;2023-03-14T02:41:06;11.13;80.73
57709;SHT35;42558;52.388;13.390;2023-03-14T02:43:37;11.19;80.51
57709;SHT35;42558;52.388;13.390;2023-03-14T02:46:07;11.16;80.50
57709;SHT35;42558;52.388;13.390;2023-03-14T02:48:44;11.18;80.45
57709;SHT35;42558;52.388;13.390;2023-03-14T02:51:23;11.13;80.53
57709;SHT35;42558;52.388;13.390;2023-03-14T02:53:54;11.10;80.71
57709;SHT35;42558;52.388;13.390;2023-03-14T02:56:22;11.13;80.42
57709;SHT35;42558;52.388;13.390;2023-03-14T02:58:51;11.07;80.59
57709;SHT35;42558;52.388;13.390;2023-03-14T03:01:19;11.01;80.82
57709;SHT35;42558;52.388;13.390;2023-03-14T03:03:48;11.10;80.52
57709;SHT35;42558;52.388;13.390;2023-03-14T03:06:16;11.07;80.55
57709;SHT35;42558;52.388;13.390;2023-03-14T03:08:44;10.94;80.83
57709;SHT35;42558;52.388;13.390;2023-03-14T03:11:13;10.98;80.83
57709;SHT35;42558;52.388;13.390;2023-03-14T03:13:41;11.01;80.67
57709;SHT35;42558;52.388;13.390;2023-03-14T03:16:10;11.03;80.56
57709;SHT35;42558;52.388;13.390;2023-03-14T03:18:42;11.02;80.52
57709;SHT35;42558;52.388;13.390;2023-03-14T03:21:12;10.94;80.75
57709;SHT35;42558;52.388;13.390;2023-03-14T03:23:42;10.89;81.05
57709;SHT35;42558;52.388;13.390;2023-03-14T03:26:11;10.85;81.12
57709;SHT35;42558;52.388;13.390;2023-03-14T03:28:41;10.81;81.27
57709;SHT35;42558;52.388;13.390;2023-03-14T03:31:11;10.77;81.38
57709;SHT35;42558;52.388;13.390;2023-03-14T03:33:41;10.77;81.42
57709;SHT35;42558;52.388;13.390;2023-03-14T03:36:12;10.76;81.39
57709;SHT35;42558;52.388;13.390;2023-03-14T03:38:42;10.74;81.49
57709;SHT35;42558;52.388;13.390;2023-03-14T03:41:12;10.77;81.14
57709;SHT35;42558;52.388;13.390;2023-03-14T03:43:41;10.73;81.42
57709;SHT35;42558;52.388;13.390;2023-03-14T03:46:12;10.79;81.03
57709;SHT35;42558;52.388;13.390;2023-03-14T03:48:41;10.73;81.15
57709;SHT35;42558;52.388;13.390;2023-03-14T03:51:12;10.71;81.24
57709;SHT35;42558;52.388;13.390;2023-03-14T03:53:44;10.71;81.18
57709;SHT35;42558;52.388;13.390;2023-03-14T03:56:14;10.76;80.93
57709;SHT35;42558;52.388;13.390;2023-03-14T03:58:45;10.77;80.79
57709;SHT35;42558;52.388;13.390;2023-03-14T04:01:15;10.86;80.33
57709;SHT35;42558;52.388;13.390;2023-03-14T04:03:45;10.82;80.31
57709;SHT35;42558;52.388;13.390;2023-03-14T04:06:15;10.73;80.57
57709;SHT35;42558;52.388;13.390;2023-03-14T04:08:45;10.73;80.57
57709;SHT35;42558;52.388;13.390;2023-03-14T04:11:15;10.74;80.30
57709;SHT35;42558;52.388;13.390;2023-03-14T04:13:45;10.72;80.38
57709;SHT35;42558;52.388;13.390;2023-03-14T04:16:23;10.67;80.50
57709;SHT35;42558;52.388;13.390;2023-03-14T04:18:54;10.69;80.34
57709;SHT35;42558;52.388;13.390;2023-03-14T04:21:21;10.67;80.32
57709;SHT35;42558;52.388;13.390;2023-03-14T04:23:48;10.67;80.30
57709;SHT35;42558;52.388;13.390;2023-03-14T04:26:19;10.67;80.18
57709;SHT35;42558;52.388;13.390;2023-03-14T04:28:49;10.66;80.13
57709;SHT35;42558;52.388;13.390;2023-03-14T04:31:19;10.61;80.31
57709;SHT35;42558;52.388;13.390;2023-03-14T04:33:50;10.65;80.10
57709;SHT35;42558;52.388;13.390;2023-03-14T04:36:20;10.66;79.96
57709;SHT35;42558;52.388;13.390;2023-03-14T04:38:51;10.63;79.98
57709;SHT35;42558;52.388;13.390;2023-03-14T04:41:20;10.59;79.93
57709;SHT35;42558;52.388;13.390;2023-03-14T04:43:51;10.52;80.20
57709;SHT35;42558;52.388;13.390;2023-03-14T04:49:27;10.61;79.65
57709;SHT35;42558;52.388;13.390;2023-03-14T04:51:56;10.71;79.12
57709;SHT35;42558;52.388;13.390;2023-03-14T04:54:24;10.63;79.24
57709;SHT35;42558;52.388;13.390;2023-03-14T04:56:53;10.56;79.44
57709;SHT35;42558;52.388;13.390;2023-03-14T04:59:21;10.53;79.49
57709;SHT35;42558;52.388;13.390;2023-03-14T05:01:50;10.53;79.55
57709;SHT35;42558;52.388;13.390;2023-03-14T05:04:18;10.56;79.32
57709;SHT35;42558;52.388;13.390;2023-03-14T05:06:47;10.52;79.32
57709;SHT35;42558;52.388;13.390;2023-03-14T05:09:15;10.51;79.32
57709;SHT35;42558;52.388;13.390;2023-03-14T05:11:43;10.43;79.51
57709;SHT35;42558;52.388;13.390;2023-03-14T05:14:12;10.43;79.41
57709;SHT35;42558;52.388;13.390;2023-03-14T05:16:40;10.54;78.80
57709;SHT35;42558;52.388;13.390;2023-03-14T05:19:09;10.54;78.61
57709;SHT35;42558;52.388;13.390;2023-03-14T05:21:40;10.51;78.58
57709;SHT35;42558;52.388;13.390;2023-03-14T05:24:10;10.48;78.45
57709;SHT35;42558;52.388;13.390;2023-03-14T05:26:40;10.49;78.34
57709;SHT35;42558;52.388;13.390;2023-03-14T05:29:10;10.48;78.30
57709;SHT35;42558;52.388;13.390;2023-03-14T05:31:40;10.56;77.82
57709;SHT35;42558;52.388;13.390;2023-03-14T05:34:10;10.57;77.65
57709;SHT35;42558;52.388;13.390;2023-03-14T05:36:40;10.58;77.41
57709;SHT35;42558;52.388;13.390;2023-03-14T05:39:10;10.55;77.46
57709;SHT35;42558;52.388;13.390;2023-03-14T05:41:40;10.61;77.11
57709;SHT35;42558;52.388;13.390;2023-03-14T05:44:09;10.63;76.90
57709;SHT35;42558;52.388;13.390;2023-03-14T05:46:39;10.61;76.86
57709;SHT35;42558;52.388;13.390;2023-03-14T05:49:09;10.54;77.04
57709;SHT35;42558;52.388;13.390;2023-03-14T05:51:39;10.59;76.72
57709;SHT35;42558;52.388;13.390;2023-03-14T05:54:09;10.64;76.32
57709;SHT35;42558;52.388;13.390;2023-03-14T05:56:39;10.62;76.21
57709;SHT35;42558;52.388;13.390;2023-03-14T05:59:09;10.71;75.68
57709;SHT35;42558;52.388;13.390;2023-03-14T06:01:39;10.74;75.44
57709;SHT35;42558;52.388;13.390;2023-03-14T06:04:09;10.69;75.63
57709;SHT35;42558;52.388;13.390;2023-03-14T06:06:39;10.74;75.24
57709;SHT35;42558;52.388;13.390;2023-03-14T06:09:09;10.85;74.67
57709;SHT35;42558;52.388;13.390;2023-03-14T06:11:39;10.90;74.36
57709;SHT35;42558;52.388;13.390;2023-03-14T06:14:09;10.91;74.26
57709;SHT35;42558;52.388;13.390;2023-03-14T06:16:37;10.96;73.98
57709;SHT35;42558;52.388;13.390;2023-03-14T06:19:06;10.98;73.96
57709;SHT35;42558;52.388;13.390;2023-03-14T06:21:34;10.98;73.88
57709;SHT35;42558;52.388;13.390;2023-03-14T06:24:02;10.99;73.90
57709;SHT35;42558;52.388;13.390;2023-03-14T06:26:31;11.03;73.72
57709;SHT35;42558;52.388;13.390;2023-03-14T06:28:59;11.10;73.34
57709;SHT35;42558;52.388;13.390;2023-03-14T06:31:31;11.16;73.15
57709;SHT35;42558;52.388;13.390;2023-03-14T06:33:59;11.09;73.58
57709;SHT35;42558;52.388;13.390;2023-03-14T06:36:28;11.06;73.67
57709;SHT35;42558;52.388;13.390;2023-03-14T06:38:56;11.14;73.24
57709;SHT35;42558;52.388;13.390;2023-03-14T06:41:24;11.22;72.83
57709;SHT35;42558;52.388;13.390;2023-03-14T06:43:53;11.25;72.87
57709;SHT35;42558;52.388;13.390;2023-03-14T06:46:24;11.34;72.39
57709;SHT35;42558;52.388;13.390;2023-03-14T06:48:54;11.38;72.28
57709;SHT35;42558;52.388;13.390;2023-03-14T06:51:24;11.40;72.29
57709;SHT35;42558;52.388;13.390;2023-03-14T06:53:54;11.39;72.17
57709;SHT35;42558;52.388;13.390;2023-03-14T06:56:24;11.44;71.92
57709;SHT35;42558;52.388;13.390;2023-03-14T06:58:54;11.49;71.95
57709;SHT35;42558;52.388;13.390;2023-03-14T07:01:25;11.51;71.89
57709;SHT35;42558;52.388;13.390;2023-03-14T07:03:58;11.55;71.94
57709;SHT35;42558;52.388;13.390;2023-03-14T07:06:28;11.60;71.83
57709;SHT35;42558;52.388;13.390;2023-03-14T07:08:58;11.60;71.91
57709;SHT35;42558;52.388;13.390;2023-03-14T07:11:31;11.61;71.61
57709;SHT35;42558;52.388;13.390;2023-03-14T07:14:01;11.59;71.70
57709;SHT35;42558;52.388;13.390;2023-03-14T07:16:31;11.54;71.93
57709;SHT35;42558;52.388;13.390;2023-03-14T07:19:02;11.52;72.13
57709;SHT35;42558;52.388;13.390;2023-03-14T07:21:32;11.50;72.15
57709;SHT35;42558;52.388;13.390;2023-03-14T07:24:03;11.52;71.93
57709;SHT35;42558;52.388;13.390;2023-03-14T07:26:34;11.52;72.15
57709;SHT35;42558;52.388;13.390;2023-03-14T07:29:04;11.55;72.16
57709;SHT35;42558;52.388;13.390;2023-03-14T07:31:34;11.59;72.04
57709;SHT35;42558;52.388;13.390;2023-03-14T07:34:04;11.61;71.90
57709;SHT35;42558;52.388;13.390;2023-03-14T07:36:33;11.61;72.22
57709;SHT35;42558;52.388;13.390;2023-03-14T07:39:03;11.63;72.06
57709;SHT35;42558;52.388;13.390;2023-03-14T07:41:33;11.61;72.04
57709;SHT35;42558;52.388;13.390;2023-03-14T07:44:04;11.63;72.05
57709;SHT35;42558;52.388;13.390;2023-03-14T07:46:34;11.61;71.85
57709;SHT35;42558;52.388;13.390;2023-03-14T07:49:04;11.62;71.94
57709;SHT35;42558;52.388;13.390;2023-03-14T07:51:33;11.59;71.96
57709;SHT35;42558;52.388;13.390;2023-03-14T07:54:03;11.64;72.08
57709;SHT35;42558;52.388;13.390;2023-03-14T07:56:33;11.71;71.69
57709;SHT35;42558;52.388;13.390;2023-03-14T07:59:03;11.91;71.12
57709;SHT35;42558;52.388;13.390;2023-03-14T08:01:33;12.21;70.60
57709;SHT35;42558;52.388;13.390;2023-03-14T08:04:03;12.23;69.98
57709;SHT35;42558;52.388;13.390;2023-03-14T08:06:34;12.10;70.32
57709;SHT35;42558;52.388;13.390;2023-03-14T08:09:05;12.09;70.48
57709;SHT35;42558;52.388;13.390;2023-03-14T08:11:35;12.08;70.46
57709;SHT35;42558;52.388;13.390;2023-03-14T08:14:05;12.06;70.51
57709;SHT35;42558;52.388;13.390;2023-03-14T08:16:35;12.13;70.31
57709;SHT35;42558;52.388;13.390;2023-03-14T08:19:05;12.19;70.13
57709;SHT35;42558;52.388;13.390;2023-03-14T08:21:34;12.23;69.95
57709;SHT35;42558;52.388;13.390;2023-03-14T08:24:04;12.34;69.41
57709;SHT35;42558;52.388;13.390;2023-03-14T08:26:35;12.35;69.50
57709;SHT35;42558;52.388;13.390;2023-03-14T08:29:05;12.27;69.50
57709;SHT35;42558;52.388;13.390;2023-03-14T08:31:35;12.22;69.48
57709;SHT35;42558;52.388;13.390;2023-03-14T08:34:05;12.20;69.50
57709;SHT35;42558;52.388;13.390;2023-03-14T08:36:36;12.22;69.39
57709;SHT35;42558;52.388;13.390;2023-03-14T08:39:05;12.24;69.48
57709;SHT35;42558;52.388;13.390;2023-03-14T08:41:36;12.21;69.92
57709;SHT35;42558;52.388;13.390;2023-03-14T08:44:10;12.24;69.51
57709;SHT35;42558;52.388;13.390;2023-03-14T08:46:41;12.31;69.34
57709;SHT35;42558;52.388;13.390;2023-03-14T08:49:09;12.28;69.43
57709;SHT35;42558;52.388;13.390;2023-03-14T08:51:37;12.24;69.86
57709;SHT35;42558;52.388;13.390;2023-03-14T08:54:08;12.22;70.06
57709;SHT35;42558;52.388;13.390;2023-03-14T08:56:37;12.20;70.03
57709;SHT35;42558;52.388;13.390;2023-03-14T08:59:06;12.18;70.09
57709;SHT35;42558;52.388;13.390;2023-03-14T09:01:34;12.17;69.98
57709;SHT35;42558;52.388;13.390;2023-03-14T09:04:03;12.21;69.95
57709;SHT35;42558;52.388;13.390;2023-03-14T09:06:31;12.22;69.89
57709;SHT35;42558;52.388;13.390;2023-03-14T09:09:00;12.28;69.57
57709;SHT35;42558;52.388;13.390;2023-03-14T09:11:28;12.46;69.07
57709;SHT35;42558;52.388;13.390;2023-03-14T09:13:56;12.73;68.73
57709;SHT35;42558;52.388;13.390;2023-03-14T09:16:25;13.17;67.44
57709;SHT35;42558;52.388;13.390;2023-03-14T09:18:54;13.60;66.31
57709;SHT35;42558;52.388;13.390;2023-03-14T09:21:22;14.18;64.50
57709;SHT35;42558;52.388;13.390;2023-03-14T09:23:51;14.21;63.34
57709;SHT35;42558;52.388;13.390;2023-03-14T09:26:19;14.44;63.44
57709;SHT35;42558;52.388;13.390;2023-03-14T09:28:47;14.67;62.18
57709;SHT35;42558;52.388;13.390;2023-03-14T09:31:16;14.68;61.62
57709;SHT35;42558;52.388;13.390;2023-03-14T09:33:44;14.89;60.79
57709;SHT35;42558;52.388;13.390;2023-03-14T09:36:13;14.95;60.91
57709;SHT35;42558;52.388;13.390;2023-03-14T09:38:41;15.20;60.18
57709;SHT35;42558;52.388;13.390;2023-03-14T09:41:44;15.20;60.06
57709;SHT35;42558;52.388;13.390;2023-03-14T09:44:14;15.02;59.63
57709;SHT35;42558;52.388;13.390;2023-03-14T09:46:52;15.11;59.95
57709;SHT35;42558;52.388;13.390;2023-03-14T09:49:30;15.15;60.56
57709;SHT35;42558;52.388;13.390;2023-03-14T09:52:10;14.98;62.15
57709;SHT35;42558;52.388;13.390;2023-03-14T09:54:50;14.72;62.69
57709;SHT35;42558;52.388;13.390;2023-03-14T09:57:26;14.37;62.79
57709;SHT35;42558;52.388;13.390;2023-03-14T09:59:57;14.17;63.06
57709;SHT35;42558;52.388;13.390;2023-03-14T10:05:38;14.02;63.39
57709;SHT35;42558;52.388;13.390;2023-03-14T10:08:10;13.94;63.40
57709;SHT35;42558;52.388;13.390;2023-03-14T10:10:42;13.87;64.20
57709;SHT35;42558;52.388;13.390;2023-03-14T10:13:22;13.79;64.08
57709;SHT35;42558;52.388;13.390;2023-03-14T10:18:32;13.60;64.08
57709;SHT35;42558;52.388;13.390;2023-03-14T10:23:46;13.67;64.42
57709;SHT35;42558;52.388;13.390;2023-03-14T10:26:19;13.64;64.05
57709;SHT35;42558;52.388;13.390;2023-03-14T10:29:01;13.51;64.43
57709;SHT35;42558;52.388;13.390;2023-03-14T10:34:21;13.51;64.28
57709;SHT35;42558;52.388;13.390;2023-03-14T10:36:58;13.54;64.41
57709;SHT35;42558;52.388;13.390;2023-03-14T10:39:40;13.46;64.65
57709;SHT35;42558;52.388;13.390;2023-03-14T10:42:19;13.44;64.36
57709;SHT35;42558;52.388;13.390;2023-03-14T10:44:58;13.48;64.49
57709;SHT35;42558;52.388;13.390;2023-03-14T10:47:38;13.47;64.21
57709;SHT35;42558;52.388;13.390;2023-03-14T10:50:29;13.48;64.24
57709;SHT35;42558;52.388;13.390;2023-03-14T10:53:02;13.48;64.63
57709;SHT35;42558;52.388;13.390;2023-03-14T10:55:42;13.47;65.04
57709;SHT35;42558;52.388;13.390;2023-03-14T10:58:21;13.48;65.38
57709;SHT35;42558;52.388;13.390;2023-03-14T11:01:04;13.43;65.22
57709;SHT35;42558;52.388;13.390;2023-03-14T11:03:54;13.47;65.24
57709;SHT35;42558;52.388;13.390;2023-03-14T11:11:42;13.50;65.61
57709;SHT35;42558;52.388;13.390;2023-03-14T11:14:22;13.47;65.62
57709;SHT35;42558;52.388;13.390;2023-03-14T11:23:27;13.48;65.93
57709;SHT35;42558;52.388;13.390;2023-03-14T11:35:34;13.41;66.33
57709;SHT35;42558;52.388;13.390;2023-03-14T11:41:19;13.42;67.01
57709;SHT35;42558;52.388;13.390;2023-03-14T11:43:57;13.36;67.42
57709;SHT35;42558;52.388;13.390;2023-03-14T11:46:35;13.24;68.34
57709;SHT35;42558;52.388;13.390;2023-03-14T11:49:22;12.83;71.04
57709;SHT35;42558;52.388;13.390;2023-03-14T11:57:34;12.65;71.89
57709;SHT35;42558;52.388;13.390;2023-03-14T12:00:16;12.48;72.91
57709;SHT35;42558;52.388;13.390;2023-03-14T12:05:54;12.22;74.82
57709;SHT35;42558;52.388;13.390;2023-03-14T12:08:58;12.17;75.24
57709;SHT35;42558;52.388;13.390;2023-03-14T12:11:42;12.17;75.46
57709;SHT35;42558;52.388;13.390;2023-03-14T12:14:32;12.21;75.48
57709;SHT35;42558;52.388;13.390;2023-03-14T12:17:17;12.33;74.63
57709;SHT35;42558;52.388;13.390;2023-03-14T12:22:55;12.54;75.54
57709;SHT35;42558;52.388;13.390;2023-03-14T12:25:32;12.56;74.26
57709;SHT35;42558;52.388;13.390;2023-03-14T12:28:03;12.68;72.43
57709;SHT35;42558;52.388;13.390;2023-03-14T12:30:45;12.78;71.96
57709;SHT35;42558;52.388;13.390;2023-03-14T12:33:19;12.86;70.91
57709;SHT35;42558;52.388;13.390;2023-03-14T12:35:58;12.96;70.61
57709;SHT35;42558;52.388;13.390;2023-03-14T12:41:14;13.14;70.62
57709;SHT35;42558;52.388;13.390;2023-03-14T12:43:54;13.22;70.08
57709;SHT35;42558;52.388;13.390;2023-03-14T12:46:25;13.47;70.15
57709;SHT35;42558;52.388;13.390;2023-03-14T12:51:35;13.75;68.87
57709;SHT35;42558;52.388;13.390;2023-03-14T12:56:59;13.69;68.81
57709;SHT35;42558;52.388;13.390;2023-03-14T12:59:58;13.54;68.56
57709;SHT35;42558;52.388;13.390;2023-03-14T13:02:42;13.53;68.77
57709;SHT35;42558;52.388;13.390;2023-03-14T13:05:16;13.56;68.55
57709;SHT35;42558;52.388;13.390;2023-03-14T13:15:44;13.66;67.85
57709;SHT35;42558;52.388;13.390;2023-03-14T13:18:39;13.65;67.43
57709;SHT35;42558;52.388;13.390;2023-03-14T13:30:59;14.36;67.72
57709;SHT35;42558;52.388;13.390;2023-03-14T13:33:35;14.31;67.72
57709;SHT35;42558;52.388;13.390;2023-03-14T13:36:05;14.13;68.71
57709;SHT35;42558;52.388;13.390;2023-03-14T13:38:35;14.18;69.30
57709;SHT35;42558;52.388;13.390;2023-03-14T13:41:06;14.39;69.20
57709;SHT35;42558;52.388;13.390;2023-03-14T13:43:40;13.96;70.06
57709;SHT35;42558;52.388;13.390;2023-03-14T13:48:47;13.58;71.79
57709;SHT35;42558;52.388;13.390;2023-03-14T13:51:20;13.92;71.29
57709;SHT35;42558;52.388;13.390;2023-03-14T13:53:50;13.85;71.35
57709;SHT35;42558;52.388;13.390;2023-03-14T13:56:21;13.96;71.18
57709;SHT35;42558;52.388;13.390;2023-03-14T13:58:55;14.07;71.16
57709;SHT35;42558;52.388;13.390;2023-03-14T14:01:27;14.33;70.15
57709;SHT35;42558;52.388;13.390;2023-03-14T14:04:08;13.95;70.83
57709;SHT35;42558;52.388;13.390;2023-03-14T14:06:46;13.81;71.37
57709;SHT35;42558;52.388;13.390;2023-03-14T14:09:27;13.89;71.19
57709;SHT35;42558;52.388;13.390;2023-03-14T14:12:05;14.05;70.53
57709;SHT35;42558;52.388;13.390;2023-03-14T14:15:24;13.85;70.64
57709;SHT35;42558;52.388;13.390;2023-03-14T14:18:00;14.00;70.22
57709;SHT35;42558;52.388;13.390;2023-03-14T14:20:36;14.42;69.54
57709;SHT35;42558;52.388;13.390;2023-03-14T14:23:11;14.55;67.37
57709;SHT35;42558;52.388;13.390;2023-03-14T14:25:48;14.17;67.06
57709;SHT35;42558;52.388;13.390;2023-03-14T14:36:19;14.22;67.38
57709;SHT35;42558;52.388;13.390;2023-03-14T14:39:20;14.53;67.47
57709;SHT35;42558;52.388;13.390;2023-03-14T14:41:55;14.36;67.49
57709;SHT35;42558;52.388;13.390;2023-03-14T14:44:32;14.30;68.30
57709;SHT35;42558;52.388;13.390;2023-03-14T14:47:05;14.44;68.15
57709;SHT35;42558;52.388;13.390;2023-03-14T14:49:35;14.09;69.12
57709;SHT35;42558;52.388;13.390;2023-03-14T14:54:57;13.73;69.86
57709;SHT35;42558;52.388;13.390;2023-03-14T14:57:32;13.73;69.66
57709;SHT35;42558;52.388;13.390;2023-03-14T15:00:16;13.80;69.83
57709;SHT35;42558;52.388;13.390;2023-03-14T15:02:53;13.60;70.18
57709;SHT35;42558;52.388;13.390;2023-03-14T15:05:29;13.57;70.31
57709;SHT35;42558;52.388;13.390;2023-03-14T15:08:00;13.46;70.51
57709;SHT35;42558;52.388;13.390;2023-03-14T15:10:30;13.37;70.98
57709;SHT35;42558;52.388;13.390;2023-03-14T15:13:00;13.32;71.46
57709;SHT35;42558;52.388;13.390;2023-03-14T15:15:29;13.30;71.52
57709;SHT35;42558;52.388;13.390;2023-03-14T15:17:57;13.19;72.23
57709;SHT35;42558;52.388;13.390;2023-03-14T15:20:25;13.09;72.81
57709;SHT35;42558;52.388;13.390;2023-03-14T15:22:54;13.00;72.98
57709;SHT35;42558;52.388;13.390;2023-03-14T15:25:22;12.78;72.74
57709;SHT35;42558;52.388;13.390;2023-03-14T15:28:16;9.92;75.46
57709;SHT35;42558;52.388;13.390;2023-03-14T15:30:53;8.16;82.11
57709;SHT35;42558;52.388;13.390;2023-03-14T15:33:25;7.61;84.51
57709;SHT35;42558;52.388;13.390;2023-03-14T15:35:56;7.18;85.31
57709;SHT35;42558;52.388;13.390;2023-03-14T15:38:26;6.96;85.95
57709;SHT35;42558;52.388;13.390;2023-03-14T15:40:56;6.63;86.39
57709;SHT35;42558;52.388;13.390;2023-03-14T15:43:26;6.42;87.12
57709;SHT35;42558;52.388;13.390;2023-03-14T15:45:56;6.45;87.54
57709;SHT35;42558;52.388;13.390;2023-03-14T15:48:26;6.34;87.39
57709;SHT35;42558;52.388;13.390;2023-03-14T15:50:56;6.12;86.66
57709;SHT35;42558;52.388;13.390;2023-03-14T15:53:26;5.88;86.34
57709;SHT35;42558;52.388;13.390;2023-03-14T15:55:56;5.66;86.30
57709;SHT35;42558;52.388;13.390;2023-03-14T15:58:26;5.44;86.18
57709;SHT35;42558;52.388;13.390;2023-03-14T16:00:55;5.29;86.48
57709;SHT35;42558;52.388;13.390;2023-03-14T16:03:25;5.23;87.06
57709;SHT35;42558;52.388;13.390;2023-03-14T16:05:55;5.04;86.91
57709;SHT35;42558;52.388;13.390;2023-03-14T16:08:26;4.69;86.47
57709;SHT35;42558;52.388;13.390;2023-03-14T16:10:58;4.28;85.70
57709;SHT35;42558;52.388;13.390;2023-03-14T16:13:28;4.07;86.23
57709;SHT35;42558;52.388;13.390;2023-03-14T16:16:02;3.80;86.51
57709;SHT35;42558;52.388;13.390;2023-03-14T16:18:34;3.56;86.91
57709;SHT35;42558;52.388;13.390;2023-03-14T16:21:07;3.28;87.07
57709;SHT35;42558;52.388;13.390;2023-03-14T16:23:43;3.21;87.63
57709;SHT35;42558;52.388;13.390;2023-03-14T16:26:15;3.26;88.09
57709;SHT35;42558;52.388;13.390;2023-03-14T16:28:48;2.89;87.37
57709;SHT35;42558;52.388;13.390;2023-03-14T16:31:18;2.70;87.68
57709;SHT35;42558;52.388;13.390;2023-03-14T16:33:53;2.53;88.11
57709;SHT35;42558;52.388;13.390;2023-03-14T16:36:23;2.29;88.07
57709;SHT35;42558;52.388;13.390;2023-03-14T16:38:51;2.18;88.30
57709;SHT35;42558;52.388;13.390;2023-03-14T16:41:20;2.09;88.58
57709;SHT35;42558;52.388;13.390;2023-03-14T16:43:48;1.96;88.90
57709;SHT35;42558;52.388;13.390;2023-03-14T16:46:20;1.95;89.17
57709;SHT35;42558;52.388;13.390;2023-03-14T16:48:48;1.92;89.30
57709;SHT35;42558;52.388;13.390;2023-03-14T16:51:16;2.01;89.51
57709;SHT35;42558;52.388;13.390;2023-03-14T16:53:45;1.96;89.37
57709;SHT35;42558;52.388;13.390;2023-03-14T16:56:14;1.93;89.53
57709;SHT35;42558;52.388;13.390;2023-03-14T16:58:42;1.96;89.66
57709;SHT35;42558;52.388;13.390;2023-03-14T17:01:11;1.97;89.63
57709;SHT35;42558;52.388;13.390;2023-03-14T17:03:46;1.98;89.65
57709;SHT35;42558;52.388;13.390;2023-03-14T17:06:17;1.96;89.67
57709;SHT35;42558;52.388;13.390;2023-03-14T17:08:52;1.82;89.55
57709;SHT35;42558;52.388;13.390;2023-03-14T17:11:22;1.80;89.69
57709;SHT35;42558;52.388;13.390;2023-03-14T17:13:53;1.82;89.86
57709;SHT35;42558;52.388;13.390;2023-03-14T17:16:22;1.82;89.96
57709;SHT35;42558;52.388;13.390;2023-03-14T17:18:53;1.75;89.95
57709;SHT35;42558;52.388;13.390;2023-03-14T17:21:23;1.81;90.11
57709;SHT35;42558;52.388;13.390;2023-03-14T17:23:53;1.80;90.07
57709;SHT35;42558;52.388;13.390;2023-03-14T17:26:23;1.80;90.10